createdAt,value
2018-02-09T00:00:52.289Z,92.9
2018-02-09T00:05:52.096Z,92.9
2018-02-09T00:10:52.367Z,92.7
2018-02-09T00:15:52.338Z,92.4
2018-02-09T00:20:52.380Z,92.8
2018-02-09T00:25:52.272Z,93.1
2018-02-09T00:30:52.670Z,92.5
2018-02-09T00:35:52.457Z,92.8
2018-02-09T00:40:52.618Z,93.7
2018-02-09T00:45:52.653Z,93.7
2018-02-09T00:50:52.684Z,93.5
2018-02-09T00:55:52.469Z,93.4
2018-02-09T01:00:52.759Z,93.4
2018-02-09T01:05:52.691Z,93.1
2018-02-09T01:10:52.660Z,93.1
2018-02-09T01:15:52.855Z,93.9
2018-02-09T01:20:52.778Z,93.7
2018-02-09T01:25:52.779Z,93.5
2018-02-09T01:30:53.158Z,93.1
2018-02-09T01:35:53.144Z,93.2
2018-02-09T01:40:53.118Z,93.4
2018-02-09T01:45:53.365Z,93.5
2018-02-09T01:50:53.313Z,92.9
2018-02-09T01:55:53.329Z,92.7
2018-02-09T02:00:53.362Z,93.1
2018-02-09T02:05:53.086Z,93
2018-02-09T02:10:53.144Z,93.2
2018-02-09T02:15:53.144Z,93.6
2018-02-09T02:20:53.150Z,93.5
2018-02-09T02:25:53.315Z,93.8
2018-02-09T02:30:53.577Z,93.4
2018-02-09T02:35:53.499Z,93.4
2018-02-09T02:40:53.843Z,93.8
2018-02-09T02:45:53.754Z,93.8
2018-02-09T02:50:53.795Z,94
2018-02-09T02:55:53.633Z,93.2
2018-02-09T03:00:53.635Z,93.5
2018-02-09T03:05:53.789Z,93.2
2018-02-09T03:10:53.836Z,93.3
2018-02-09T03:15:53.808Z,93.5
2018-02-09T03:20:54.185Z,93.3
2018-02-09T03:25:59.141Z,93.1
2018-02-09T03:30:53.921Z,93.4
2018-02-09T03:35:54.080Z,93.9
2018-02-09T03:40:54.156Z,93.5
2018-02-09T03:45:54.221Z,93.6
2018-02-09T03:50:54.306Z,93.7
2018-02-09T03:55:54.343Z,94.1
2018-02-09T04:00:54.126Z,93.9
2018-02-09T04:05:54.316Z,93.6
2018-02-09T04:10:54.154Z,93.6
2018-02-09T04:15:54.155Z,93.5
2018-02-09T04:20:54.144Z,93.4
2018-02-09T04:25:54.341Z,94.1
2018-02-09T04:30:54.141Z,93.7
2018-02-09T04:35:54.168Z,94.3
2018-02-09T04:40:54.345Z,94.5
2018-02-09T04:45:54.360Z,94.3
2018-02-09T04:50:55.971Z,94.5
2018-02-09T04:55:54.335Z,94.9
2018-02-09T05:00:54.171Z,94.2
2018-02-09T05:05:54.600Z,94.2
2018-02-09T05:10:54.144Z,93.9
2018-02-09T05:15:54.190Z,94
2018-02-09T05:20:54.201Z,93.9
2018-02-09T05:25:54.238Z,94.7
2018-02-09T05:30:54.358Z,94.4
2018-02-09T05:35:54.464Z,94
2018-02-09T05:40:54.446Z,94.3
2018-02-09T05:45:54.232Z,94.1
2018-02-09T05:50:54.400Z,94.4
2018-02-09T05:55:54.343Z,94.1
2018-02-09T06:00:54.578Z,93.7
2018-02-09T06:05:54.501Z,93.5
2018-02-09T06:10:54.549Z,94.3
2018-02-09T06:15:54.792Z,93.4
2018-02-09T06:20:54.699Z,93.3
2018-02-09T06:25:54.734Z,93.9
2018-02-09T06:30:54.595Z,94.3
2018-02-09T06:35:54.712Z,93.6
2018-02-09T06:40:54.594Z,94
2018-02-09T06:45:54.980Z,94.5
2018-02-09T06:50:55.074Z,93.6
2018-02-09T06:55:55.252Z,93.5
2018-02-09T07:00:55.109Z,93.8
2018-02-09T07:05:55.545Z,94.4
2018-02-09T07:10:55.338Z,93.9
2018-02-09T07:15:55.683Z,93.6
2018-02-09T07:20:55.603Z,93.3
2018-02-09T07:25:55.673Z,93.4
2018-02-09T07:30:55.906Z,93.3
2018-02-09T07:35:56.068Z,93.2
2018-02-09T07:40:55.822Z,92.6
2018-02-09T07:45:56.065Z,92.5
2018-02-09T07:50:56.231Z,92.2
2018-02-09T07:55:56.172Z,92.1
2018-02-09T08:00:56.203Z,92.2
2018-02-09T08:05:56.070Z,91
2018-02-09T08:10:56.060Z,91.3
2018-02-09T08:15:56.978Z,91.1
2018-02-09T08:21:02.050Z,90.6
2018-02-09T08:25:56.973Z,90.5
2018-02-09T08:30:57.047Z,90
2018-02-09T08:35:56.825Z,89.5
2018-02-09T08:40:57.202Z,90
2018-02-09T08:45:57.066Z,90
2018-02-09T08:50:57.204Z,89.2
2018-02-09T08:55:57.180Z,89
2018-02-09T09:00:57.086Z,88.1
2018-02-09T09:05:57.159Z,87.3
2018-02-09T09:10:56.966Z,86.9
2018-02-09T09:15:56.983Z,86.5
2018-02-09T09:20:56.982Z,86.6
2018-02-09T09:25:56.961Z,85.5
2018-02-09T09:30:56.984Z,85.1
2018-02-09T09:35:56.940Z,84.3
2018-02-09T09:40:57.203Z,83.2
2018-02-09T09:45:57.119Z,84.4
2018-02-09T09:50:56.980Z,84.6
2018-02-09T09:55:57.139Z,86
2018-02-09T10:00:57.011Z,85.4
2018-02-09T10:05:57.171Z,85.6
2018-02-09T10:10:56.999Z,85.7
2018-02-09T10:15:57.029Z,85.8
2018-02-09T10:20:57.246Z,84.7
2018-02-09T10:25:57.038Z,85.4
2018-02-09T10:30:57.213Z,84.1
2018-02-09T10:35:57.506Z,83.3
2018-02-09T10:40:57.162Z,83.4
2018-02-09T10:45:57.215Z,82.8
2018-02-09T10:50:57.246Z,82.2
2018-02-09T10:55:57.037Z,83
2018-02-09T11:00:57.216Z,82.8
2018-02-09T11:05:57.039Z,83
2018-02-09T11:10:57.082Z,82.7
2018-02-09T11:15:57.079Z,83.8
2018-02-09T11:20:57.374Z,81.9
2018-02-09T11:25:57.290Z,82.9
2018-02-09T11:30:57.162Z,82.5
2018-02-09T11:35:57.079Z,83
2018-02-09T11:40:57.143Z,83.2
2018-02-09T11:45:57.207Z,82.3
2018-02-09T11:50:57.239Z,82.3
2018-02-09T11:55:57.082Z,82.7
2018-02-09T12:00:57.306Z,83.9
2018-02-09T12:05:57.381Z,83.6
2018-02-09T12:10:57.091Z,82.8
2018-02-09T12:15:57.322Z,82.6
2018-02-09T12:20:57.232Z,82.6
2018-02-09T12:25:57.277Z,82.4
2018-02-09T12:30:57.330Z,82.4
2018-02-09T12:35:57.246Z,81.6
2018-02-09T12:40:57.451Z,82.6
2018-02-09T12:45:57.162Z,84.1
2018-02-09T12:50:57.131Z,84
2018-02-09T12:55:57.268Z,83.7
2018-02-09T13:00:57.296Z,84.4
2018-02-09T13:05:57.109Z,85.1
2018-02-09T13:11:00.453Z,84.4
2018-02-09T13:16:05.711Z,85.2
2018-02-09T13:21:00.631Z,85.1
2018-02-09T13:26:00.567Z,85.1
2018-02-09T13:31:00.574Z,85.6
2018-02-09T13:36:00.694Z,86.1
2018-02-09T13:41:00.849Z,86.2
2018-02-09T13:46:00.905Z,85.7
2018-02-09T13:51:00.843Z,85.6
2018-02-09T13:56:00.673Z,85.3
2018-02-09T14:01:00.712Z,84.5
2018-02-09T14:06:00.722Z,85.4
2018-02-09T14:11:00.886Z,85.1
2018-02-09T14:16:00.901Z,85.3
2018-02-09T14:21:00.725Z,85.6
2018-02-09T14:26:00.774Z,85
2018-02-09T14:31:00.788Z,85.2
2018-02-09T14:36:00.744Z,85.7
2018-02-09T14:41:00.968Z,85.8
2018-02-09T14:46:00.751Z,86.1
2018-02-09T14:51:00.716Z,84.8
2018-02-09T14:56:00.754Z,85.1
2018-02-09T15:01:00.734Z,85.3
2018-02-09T15:06:00.746Z,84.2
2018-02-09T15:11:00.694Z,83.5
2018-02-09T15:16:00.771Z,83.8
2018-02-09T15:21:00.745Z,83.3
2018-02-09T15:26:00.755Z,82.9
2018-02-09T15:31:00.756Z,83.2
2018-02-09T15:36:00.764Z,82.7
2018-02-09T15:41:00.751Z,82.5
2018-02-09T15:46:00.780Z,82.2
2018-02-09T15:51:00.770Z,82.4
2018-02-09T15:56:00.814Z,83.1
2018-02-09T16:01:00.789Z,82.9
2018-02-09T16:06:00.773Z,83.6
2018-02-09T16:11:00.800Z,82.7
2018-02-09T16:16:00.777Z,83.7
2018-02-09T16:21:00.778Z,82.8
2018-02-09T16:26:00.788Z,82.9
2018-02-09T16:31:00.803Z,83.9
2018-02-09T16:36:00.823Z,83.2
2018-02-09T16:41:00.812Z,82.9
2018-02-09T16:46:00.863Z,82.9
2018-02-09T16:51:00.982Z,83.5
2018-02-09T16:56:00.801Z,84
2018-02-09T17:01:00.786Z,83.6
2018-02-09T17:06:00.805Z,84.2
2018-02-09T17:11:00.832Z,84
2018-02-09T17:16:00.810Z,83.9
2018-02-09T17:21:00.800Z,83.8
2018-02-09T17:26:00.817Z,83.3
2018-02-09T17:31:00.849Z,82.9
2018-02-09T17:36:00.842Z,82.3
2018-02-09T17:41:00.766Z,82.5
2018-02-09T17:46:00.857Z,82.8
2018-02-09T17:51:00.851Z,83.2
2018-02-09T17:56:00.952Z,83.1
2018-02-09T18:01:00.849Z,82.8
2018-02-09T18:06:00.839Z,83.5
2018-02-09T18:11:05.243Z,82.6
2018-02-09T18:16:10.339Z,83.4
2018-02-09T18:21:05.192Z,82.8
2018-02-09T18:26:05.342Z,82.9
2018-02-09T18:31:05.621Z,83.4
2018-02-09T18:36:05.425Z,83
2018-02-09T18:41:05.255Z,83.5
2018-02-09T18:46:05.258Z,83.1
2018-02-09T18:51:05.195Z,83.3
2018-02-09T18:56:05.221Z,84.6
2018-02-09T19:01:05.242Z,83.9
2018-02-09T19:06:05.258Z,84
2018-02-09T19:11:05.251Z,83.8
2018-02-09T19:16:05.254Z,84.4
2018-02-09T19:21:05.279Z,84.5
2018-02-09T19:26:05.510Z,84.2
2018-02-09T19:31:05.280Z,84.3
2018-02-09T19:36:05.264Z,84.8
2018-02-09T19:41:05.549Z,83.4
2018-02-09T19:46:05.403Z,84.3
2018-02-09T19:51:05.415Z,84.2
2018-02-09T19:56:05.336Z,84.5
2018-02-09T20:01:05.381Z,84.5
2018-02-09T20:06:05.509Z,83.7
2018-02-09T20:11:05.411Z,83.9
2018-02-09T20:16:05.419Z,84.4
2018-02-09T20:21:05.625Z,84
2018-02-09T20:26:05.434Z,84.2
2018-02-09T20:31:05.411Z,84.5
2018-02-09T20:36:05.410Z,84.6
2018-02-09T20:41:05.539Z,84.4
2018-02-09T20:46:05.421Z,84.3
2018-02-09T20:51:05.411Z,84.8
2018-02-09T20:56:05.426Z,84.3
2018-02-09T21:01:05.444Z,84.8
2018-02-09T21:06:05.447Z,84.6
2018-02-09T21:11:05.442Z,85
2018-02-09T21:16:05.426Z,85.2
2018-02-09T21:21:05.609Z,84.4
2018-02-09T21:26:05.392Z,84.6
2018-02-09T21:31:05.461Z,85.1
2018-02-09T21:36:05.401Z,85
2018-02-09T21:41:05.458Z,85.5
2018-02-09T21:46:05.471Z,85.2
2018-02-09T21:51:05.470Z,84.8
2018-02-09T21:56:05.457Z,85.2
2018-02-09T22:01:05.458Z,85
2018-02-09T22:06:05.460Z,84.8
2018-02-09T22:11:05.641Z,84.9
2018-02-09T22:16:05.474Z,85.2
2018-02-09T22:21:05.634Z,85.5
2018-02-09T22:26:05.857Z,85.7
2018-02-09T22:31:05.644Z,85
2018-02-09T22:36:05.789Z,85.6
2018-02-09T22:41:05.668Z,85.4
2018-02-09T22:46:05.734Z,85
2018-02-09T22:51:05.667Z,86
2018-02-09T22:56:05.722Z,85.1
2018-02-09T23:01:05.721Z,85.1
2018-02-09T23:06:06.859Z,84.9
2018-02-09T23:11:11.697Z,85.4
2018-02-09T23:16:06.621Z,85.4
2018-02-09T23:21:06.585Z,85.6
2018-02-09T23:26:06.626Z,85.5
2018-02-09T23:31:06.858Z,85.4
2018-02-09T23:36:06.817Z,85.2
2018-02-09T23:41:06.961Z,85.1
2018-02-09T23:46:06.857Z,85
2018-02-09T23:51:07.048Z,85.6
2018-02-09T23:56:07.100Z,85.3
